Wetterdaten: Woche 01.03.21 - 07.03.21 (KW9)
Datum Zeit Temp. Aussen Temp. o. S. Temp +5cm Feuchte Auss Luftdruck Regen Sonnenschein Regendauer Solar Windben Empfang
01.03.2021 00:00 4,6 C 3,5 C 1,4 C 91 % 1034,5 hPa 0,0 l/m 0,00 h 0,00 h 0 W/m 0,0 km/h (0 Bft) 93,49 %
01.03.2021 01:00 4,0 C 3,0 C 1,0 C 93 % 1034,7 hPa 0,0 l/m 0,00 h 0,00 h 0 W/m 0,0 km/h (0 Bft) 95,62 %
01.03.2021 02:00 3,4 C 2,3 C 0,6 C 94 % 1034,7 hPa 0,0 l/m 0,00 h 0,00 h 0 W/m 0,0 km/h (0 Bft) 96,35 %
01.03.2021 03:00 3,2 C 2,5 C 1,1 C 95 % 1034,5 hPa 0,0 l/m 0,00 h 0,00 h 0 W/m 0,0 km/h (0 Bft) 99,79 %
01.03.2021 04:00 3,1 C 2,5 C 1,1 C 96 % 1034,2 hPa 0,0 l/m 0,00 h 0,00 h 0 W/m 0,0 km/h (0 Bft) 98,15 %
01.03.2021 05:00 3,0 C 2,2 C 1,4 C 96 % 1034,3 hPa 0,0 l/m 0,00 h 0,00 h 0 W/m 0,0 km/h (0 Bft) 97,66 %
01.03.2021 06:00 2,9 C 2,2 C 1,2 C 97 % 1034,3 hPa 0,0 l/m 0,00 h 0,00 h 0 W/m 0,0 km/h (0 Bft) 96,23 %
01.03.2021 07:00 2,9 C 2,4 C 1,7 C 97 % 1034,6 hPa 0,0 l/m 0,00 h 0,00 h 8 W/m 0,0 km/h (0 Bft) 96,87 %
01.03.2021 08:00 3,2 C 3,0 C 2,3 C 97 % 1034,8 hPa 0,0 l/m 0,00 h 0,00 h 32 W/m 0,0 km/h (0 Bft) 94,51 %
01.03.2021 09:00 3,8 C 4,2 C 3,5 C 98 % 1034,7 hPa 0,0 l/m 0,00 h 0,00 h 88 W/m 0,0 km/h (0 Bft) 97,79 %
01.03.2021 10:00 4,7 C 5,8 C 4,9 C 97 % 1034,7 hPa 0,0 l/m 0,00 h 0,00 h 142 W/m 0,0 km/h (0 Bft) 97,88 %
01.03.2021 11:00 6,3 C 11,2 C 7,4 C 95 % 1034,4 hPa 0,0 l/m 0,70 h 0,00 h 401 W/m 0,0 km/h (0 Bft) 95,83 %
01.03.2021 12:00 10,2 C 17,7 C 20,0 C 80 % 1034,0 hPa 0,0 l/m 1,00 h 0,00 h 570 W/m 0,0 km/h (0 Bft) 98,53 %
01.03.2021 13:00 12,4 C 18,9 C 21,0 C 72 % 1033,4 hPa 0,0 l/m 1,00 h 0,00 h 574 W/m 0,0 km/h (0 Bft) 98,08 %
01.03.2021 14:00 13,5 C 18,5 C 21,1 C 69 % 1032,8 hPa 0,0 l/m 1,00 h 0,00 h 514 W/m 0,0 km/h (0 Bft) 98,43 %
01.03.2021 15:00 13,5 C 17,1 C 20,0 C 67 % 1032,4 hPa 0,0 l/m 1,00 h 0,00 h 406 W/m 0,0 km/h (0 Bft) 95,65 %
01.03.2021 16:00 12,8 C 14,3 C 16,0 C 68 % 1032,0 hPa 0,0 l/m 1,00 h 0,00 h 252 W/m 0,0 km/h (0 Bft) 96,94 %
01.03.2021 17:00 10,5 C 9,0 C 6,3 C 73 % 1031,9 hPa 0,0 l/m 0,43 h 0,00 h 61 W/m 0,0 km/h (0 Bft) 98,08 %
01.03.2021 18:00 7,6 C 5,9 C 3,7 C 81 % 1031,9 hPa 0,0 l/m 0,00 h 0,00 h 7 W/m 0,0 km/h (0 Bft) 98,24 %
01.03.2021 19:00 6,0 C 4,7 C 2,5 C 87 % 1031,9 hPa 0,0 l/m 0,00 h 0,00 h 0 W/m 0,0 km/h (0 Bft) 95,45 %
01.03.2021 20:00 5,4 C 4,4 C 2,3 C 90 % 1031,7 hPa 0,0 l/m 0,00 h 0,00 h 0 W/m 0,0 km/h (0 Bft) 96,33 %
01.03.2021 21:00 4,9 C 3,8 C 1,6 C 92 % 1031,6 hPa 0,0 l/m 0,00 h 0,00 h 0 W/m 0,0 km/h (0 Bft) 95,33 %
01.03.2021 22:00 4,3 C 3,3 C 1,1 C 92 % 1031,6 hPa 0,0 l/m 0,00 h 0,00 h 0 W/m 0,0 km/h (0 Bft) 99,36 %
01.03.2021 23:00 3,9 C 2,9 C 1,1 C 93 % 1031,6 hPa 0,0 l/m 0,00 h 0,00 h 0 W/m 0,0 km/h (0 Bft) 97,86 %
02.03.2021 00:00 3,4 C 2,2 C 0,5 C 93 % 1031,6 hPa 0,0 l/m 0,00 h 0,00 h 0 W/m 0,0 km/h (0 Bft) 94,07 %
02.03.2021 01:00 2,8 C 1,7 C 0,4 C 94 % 1031,6 hPa 0,0 l/m 0,00 h 0,00 h 0 W/m 0,0 km/h (0 Bft) 97,50 %
02.03.2021 02:00 2,3 C 1,0 C -0,3 C 94 % 1031,6 hPa 0,0 l/m 0,00 h 0,00 h 0 W/m 0,0 km/h (0 Bft) 97,08 %
02.03.2021 03:00 1,7 C 0,6 C -0,5 C 94 % 1031,5 hPa 0,0 l/m 0,00 h 0,00 h 0 W/m 0,0 km/h (0 Bft) 93,46 %
02.03.2021 04:00 1,3 C 0,5 C -0,7 C 94 % 1031,3 hPa 0,0 l/m 0,00 h 0,00 h 0 W/m 0,0 km/h (0 Bft) 99,07 %
02.03.2021 05:00 1,0 C 0,0 C -1,1 C 94 % 1031,3 hPa 0,0 l/m 0,00 h 0,00 h 0 W/m 0,0 km/h (0 Bft) 98,22 %
02.03.2021 06:00 0,6 C -0,2 C -1,4 C 94 % 1031,3 hPa 0,0 l/m 0,00 h 0,00 h 0 W/m 0,0 km/h (0 Bft) 97,99 %
02.03.2021 07:00 0,5 C -0,1 C -1,3 C 95 % 1031,3 hPa 0,0 l/m 0,00 h 0,00 h 9 W/m 0,0 km/h (0 Bft) 97,35 %
02.03.2021 08:00 1,4 C 2,4 C 0,8 C 96 % 1031,5 hPa 0,0 l/m 0,00 h 0,00 h 17 W/m 0,0 km/h (0 Bft) 97,39 %
02.03.2021 09:00 4,1 C 5,4 C 3,5 C 97 % 1031,6 hPa 0,0 l/m 0,00 h 0,00 h 24 W/m 0,0 km/h (0 Bft) 94,59 %
02.03.2021 10:00 7,9 C 8,6 C 6,7 C 85 % 1031,8 hPa 0,0 l/m 0,00 h 0,00 h 33 W/m 0,9 km/h (0 Bft) 99,21 %
02.03.2021 11:00 11,1 C 15,0 C 10,6 C 72 % 1031,7 hPa 0,0 l/m 0,73 h 0,00 h 398 W/m 0,9 km/h (0 Bft) 97,08 %
02.03.2021 12:00 14,0 C 19,2 C 20,8 C 63 % 1031,4 hPa 0,0 l/m 1,00 h 0,00 h 567 W/m 1,9 km/h (1 Bft) 95,78 %
02.03.2021 13:00 15,7 C 20,5 C 22,8 C 58 % 1030,8 hPa 0,0 l/m 1,00 h 0,00 h 574 W/m 3,0 km/h (1 Bft) 96,73 %
02.03.2021 14:00 16,9 C 21,2 C 23,8 C 55 % 1030,4 hPa 0,0 l/m 1,00 h 0,00 h 517 W/m 2,9 km/h (1 Bft) 97,49 %
02.03.2021 15:00 17,8 C 21,5 C 23,7 C 51 % 1030,0 hPa 0,0 l/m 1,00 h 0,00 h 413 W/m 1,6 km/h (1 Bft) 99,07 %
02.03.2021 16:00 19,0 C 21,3 C 22,3 C 50 % 1029,6 hPa 0,0 l/m 1,00 h 0,00 h 258 W/m 0,0 km/h (0 Bft) 96,57 %
02.03.2021 17:00 18,2 C 16,4 C 12,3 C 54 % 1029,3 hPa 0,0 l/m 0,43 h 0,00 h 65 W/m 0,0 km/h (0 Bft) 96,58 %
02.03.2021 18:00 14,2 C 10,9 C 7,9 C 63 % 1029,5 hPa 0,0 l/m 0,00 h 0,00 h 8 W/m 0,0 km/h (0 Bft) 97,87 %
02.03.2021 19:00 11,1 C 8,8 C 5,6 C 70 % 1029,7 hPa 0,0 l/m 0,00 h 0,00 h 0 W/m 0,0 km/h (0 Bft) 96,25 %
02.03.2021 20:00 9,6 C 8,3 C 4,8 C 72 % 1029,8 hPa 0,0 l/m 0,00 h 0,00 h 0 W/m 0,0 km/h (0 Bft) 99,79 %
02.03.2021 21:00 9,6 C 9,4 C 6,1 C 73 % 1029,8 hPa 0,0 l/m 0,00 h 0,00 h 0 W/m 0,3 km/h (0 Bft) 96,67 %
02.03.2021 22:00 9,6 C 8,7 C 5,9 C 74 % 1030,0 hPa 0,0 l/m 0,00 h 0,00 h 0 W/m 0,4 km/h (0 Bft) 96,76 %
02.03.2021 23:00 9,1 C 8,3 C 5,6 C 76 % 1029,8 hPa 0,0 l/m 0,00 h 0,00 h 0 W/m 0,9 km/h (0 Bft) 96,15 %
03.03.2021 00:00 8,7 C 7,7 C 5,1 C 78 % 1029,7 hPa 0,0 l/m 0,00 h 0,00 h 0 W/m 0,4 km/h (0 Bft) 99,56 %
03.03.2021 01:00 8,0 C 6,9 C 4,3 C 80 % 1029,7 hPa 0,0 l/m 0,00 h 0,00 h 0 W/m 0,4 km/h (0 Bft) 95,30 %
03.03.2021 02:00 7,4 C 6,7 C 3,9 C 81 % 1029,6 hPa 0,0 l/m 0,00 h 0,00 h 0 W/m 0,3 km/h (0 Bft) 98,37 %
03.03.2021 03:00 7,0 C 6,1 C 3,6 C 82 % 1029,2 hPa 0,0 l/m 0,00 h 0,00 h 0 W/m 0,0 km/h (0 Bft) 96,94 %
03.03.2021 04:00 6,6 C 6,0 C 3,4 C 83 % 1028,9 hPa 0,0 l/m 0,00 h 0,00 h 0 W/m 0,3 km/h (0 Bft) 96,13 %
03.03.2021 05:00 6,4 C 5,7 C 3,4 C 83 % 1028,9 hPa 0,0 l/m 0,00 h 0,00 h 0 W/m 0,4 km/h (0 Bft) 99,36 %
03.03.2021 06:00 6,4 C 5,7 C 3,4 C 83 % 1028,7 hPa 0,0 l/m 0,00 h 0,00 h 0 W/m 0,6 km/h (0 Bft) 97,97 %
03.03.2021 07:00 6,1 C 5,6 C 3,2 C 84 % 1028,6 hPa 0,0 l/m 0,00 h 0,00 h 7 W/m 0,4 km/h (0 Bft) 96,22 %
03.03.2021 08:00 6,1 C 6,0 C 3,8 C 84 % 1028,9 hPa 0,0 l/m 0,00 h 0,00 h 42 W/m 0,3 km/h (0 Bft) 97,29 %
03.03.2021 09:00 7,2 C 7,8 C 5,6 C 84 % 1029,0 hPa 0,0 l/m 0,00 h 0,00 h 86 W/m 0,6 km/h (0 Bft) 98,17 %
03.03.2021 10:00 9,3 C 10,6 C 8,3 C 80 % 1028,8 hPa 0,0 l/m 0,00 h 0,00 h 122 W/m 0,3 km/h (0 Bft) 97,86 %
03.03.2021 11:00 11,4 C 12,2 C 15,7 C 76 % 1028,6 hPa 0,4 l/m 0,03 h 0,00 h 112 W/m 1,1 km/h (0 Bft) 96,19 %
03.03.2021 12:00 14,2 C 18,6 C 13,5 C 70 % 1028,3 hPa 0,0 l/m 0,93 h 0,00 h 448 W/m 1,0 km/h (0 Bft) 95,09 %
03.03.2021 13:00 16,1 C 22,5 C 13,1 C 62 % 1027,7 hPa 0,0 l/m 1,00 h 0,00 h 468 W/m 4,5 km/h (1 Bft) 99,72 %
03.03.2021 14:00 16,7 C 22,5 C 13,3 C 59 % 1027,0 hPa 0,0 l/m 1,00 h 0,00 h 421 W/m 6,4 km/h (2 Bft) 95,42 %
03.03.2021 15:00 16,8 C 20,2 C 13,2 C 58 % 1026,5 hPa 0,0 l/m 1,00 h 0,00 h 315 W/m 7,4 km/h (2 Bft) 96,83 %
03.03.2021 16:00 16,4 C 17,1 C 12,3 C 60 % 1025,9 hPa 0,0 l/m 0,80 h 0,00 h 163 W/m 4,2 km/h (1 Bft) 98,15 %
03.03.2021 17:00 15,8 C 14,8 C 10,7 C 61 % 1025,6 hPa 0,0 l/m 0,20 h 0,00 h 53 W/m 0,8 km/h (0 Bft) 96,22 %
03.03.2021 18:00 14,2 C 11,5 C 9,4 C 67 % 1025,4 hPa 0,0 l/m 0,00 h 0,00 h 8 W/m 0,0 km/h (0 Bft) 98,05 %
03.03.2021 19:00 11,8 C 9,4 C 7,8 C 73 % 1025,4 hPa 0,0 l/m 0,00 h 0,00 h 0 W/m 0,0 km/h (0 Bft) 99,50 %
03.03.2021 20:00 10,2 C 8,5 C 7,4 C 78 % 1025,2 hPa 0,0 l/m 0,00 h 0,00 h 0 W/m 0,0 km/h (0 Bft) 94,47 %
03.03.2021 21:00 9,5 C 8,6 C 7,9 C 83 % 1025,1 hPa 0,0 l/m 0,00 h 0,00 h 0 W/m 1,8 km/h (1 Bft) 96,65 %
03.03.2021 22:00 9,4 C 8,1 C 7,5 C 85 % 1024,8 hPa 0,0 l/m 0,00 h 0,00 h 0 W/m 0,0 km/h (0 Bft) 96,79 %
03.03.2021 23:00 8,8 C 7,3 C 6,7 C 86 % 1024,5 hPa 0,0 l/m 0,00 h 0,00 h 0 W/m 0,0 km/h (0 Bft) 98,86 %
04.03.2021 00:00 7,8 C 6,5 C 6,3 C 89 % 1024,1 hPa 0,0 l/m 0,00 h 0,00 h 0 W/m 0,2 km/h (0 Bft) 96,82 %
04.03.2021 01:00 7,5 C 6,7 C 6,7 C 92 % 1023,6 hPa 0,2 l/m 0,00 h 0,43 h 0 W/m 0,1 km/h (0 Bft) 99,79 %
04.03.2021 02:00 7,4 C 6,3 C 6,5 C 94 % 1023,3 hPa 0,0 l/m 0,00 h 0,00 h 0 W/m 0,0 km/h (0 Bft) 96,65 %
04.03.2021 03:00 6,8 C 6,0 C 6,1 C 95 % 1022,7 hPa 0,0 l/m 0,00 h 0,00 h 0 W/m 1,4 km/h (1 Bft) 95,80 %
04.03.2021 04:00 6,2 C 5,3 C 5,9 C 95 % 1022,0 hPa 0,0 l/m 0,00 h 0,00 h 0 W/m 0,1 km/h (0 Bft) 97,42 %
04.03.2021 05:00 5,8 C 5,2 C 5,9 C 96 % 1021,6 hPa 0,0 l/m 0,00 h 0,00 h 0 W/m 2,9 km/h (1 Bft) 99,36 %
04.03.2021 06:00 5,2 C 4,7 C 5,6 C 96 % 1021,2 hPa 0,0 l/m 0,00 h 0,00 h 0 W/m 5,5 km/h (1 Bft) 96,89 %
04.03.2021 07:00 4,7 C 4,0 C 5,0 C 96 % 1021,4 hPa 2,0 l/m 0,00 h 0,93 h 0 W/m 2,3 km/h (1 Bft) 97,86 %
04.03.2021 08:00 4,8 C 4,0 C 3,7 C 97 % 1021,0 hPa 6,6 l/m 0,00 h 1,00 h 9 W/m 3,0 km/h (1 Bft) 96,28 %
04.03.2021 09:00 4,9 C 4,4 C 3,5 C 98 % 1020,7 hPa 2,4 l/m 0,00 h 1,00 h 26 W/m 3,2 km/h (1 Bft) 95,88 %
04.03.2021 10:00 5,0 C 4,5 C 3,7 C 98 % 1020,8 hPa 1,0 l/m 0,00 h 0,47 h 38 W/m 3,2 km/h (1 Bft) 97,16 %
04.03.2021 11:00 4,7 C 4,3 C 3,4 C 98 % 1020,6 hPa 0,6 l/m 0,00 h 0,43 h 28 W/m 4,1 km/h (1 Bft) 98,08 %
04.03.2021 12:00 4,6 C 4,2 C 3,4 C 99 % 1020,7 hPa 0,4 l/m 0,00 h 0,60 h 28 W/m 6,9 km/h (2 Bft) 98,15 %
04.03.2021 13:00 4,3 C 3,9 C 3,4 C 98 % 1020,3 hPa 0,8 l/m 0,00 h 0,93 h 45 W/m 9,4 km/h (2 Bft) 96,59 %
04.03.2021 14:00 4,0 C 3,6 C 2,9 C 98 % 1020,2 hPa 1,4 l/m 0,00 h 1,00 h 35 W/m 11,3 km/h (2 Bft) 98,65 %
04.03.2021 15:00 3,9 C 3,6 C 2,8 C 98 % 1020,1 hPa 0,8 l/m 0,00 h 1,00 h 45 W/m 9,2 km/h (2 Bft) 97,58 %
04.03.2021 16:00 3,6 C 3,3 C 2,8 C 98 % 1020,0 hPa 0,6 l/m 0,00 h 0,87 h 30 W/m 12,0 km/h (2 Bft) 94,09 %
04.03.2021 17:00 3,6 C 3,3 C 2,8 C 98 % 1020,2 hPa 0,0 l/m 0,00 h 0,10 h 23 W/m 9,4 km/h (2 Bft) 98,02 %
04.03.2021 18:00 3,6 C 3,3 C 2,8 C 98 % 1020,5 hPa 0,0 l/m 0,00 h 0,00 h 0 W/m 4,0 km/h (1 Bft) 97,98 %
04.03.2021 19:00 3,7 C 3,3 C 2,8 C 98 % 1020,8 hPa 0,0 l/m 0,00 h 0,00 h 0 W/m 4,7 km/h (1 Bft) 98,04 %
04.03.2021 20:00 3,7 C 3,3 C 2,8 C 98 % 1020,8 hPa 0,0 l/m 0,00 h 0,00 h 0 W/m 4,8 km/h (1 Bft) 98,59 %
04.03.2021 21:00 3,7 C 3,2 C 2,8 C 98 % 1021,3 hPa 0,2 l/m 0,00 h 0,10 h 0 W/m 12,9 km/h (3 Bft) 96,65 %
04.03.2021 22:00 3,1 C 2,8 C 2,3 C 97 % 1021,8 hPa 0,0 l/m 0,00 h 0,00 h 0 W/m 15,8 km/h (3 Bft) 88,50 %
04.03.2021 23:00 2,9 C 2,4 C 1,7 C 95 % 1022,3 hPa 0,0 l/m 0,00 h 0,00 h 0 W/m 14,3 km/h (3 Bft) 90,26 %
05.03.2021 00:00 2,9 C 2,2 C 1,7 C 93 % 1022,5 hPa 0,0 l/m 0,00 h 0,00 h 0 W/m 7,5 km/h (2 Bft) 95,45 %
05.03.2021 01:00 2,7 C 2,2 C 1,4 C 91 % 1023,0 hPa 0,0 l/m 0,00 h 0,00 h 0 W/m 7,6 km/h (2 Bft) 96,12 %
05.03.2021 02:00 2,7 C 2,2 C 1,7 C 92 % 1023,3 hPa 0,0 l/m 0,00 h 0,03 h 0 W/m 10,7 km/h (2 Bft) 95,38 %
05.03.2021 03:00 2,8 C 2,2 C 1,7 C 94 % 1023,5 hPa 0,0 l/m 0,00 h 0,00 h 0 W/m 10,2 km/h (2 Bft) 98,81 %
05.03.2021 04:00 2,7 C 2,2 C 1,6 C 95 % 1024,0 hPa 0,0 l/m 0,00 h 0,00 h 0 W/m 12,1 km/h (2 Bft) 98,22 %
05.03.2021 05:00 2,1 C 1,6 C 0,8 C 91 % 1024,7 hPa 0,0 l/m 0,00 h 0,00 h 0 W/m 15,8 km/h (3 Bft) 97,46 %
05.03.2021 06:00 0,6 C -0,3 C -0,8 C 89 % 1025,5 hPa 0,0 l/m 0,00 h 0,00 h 0 W/m 11,1 km/h (2 Bft) 96,94 %
05.03.2021 07:00 -0,2 C -1,0 C -1,3 C 90 % 1026,3 hPa 0,0 l/m 0,00 h 0,00 h 15 W/m 9,6 km/h (2 Bft) 99,22 %
05.03.2021 08:00 -0,2 C -0,1 C -1,3 C 89 % 1027,4 hPa 0,0 l/m 0,20 h 0,00 h 74 W/m 12,4 km/h (3 Bft) 95,38 %
05.03.2021 09:00 1,6 C 5,0 C 0,2 C 84 % 1028,2 hPa 0,0 l/m 0,80 h 0,00 h 250 W/m 12,2 km/h (3 Bft) 93,97 %
05.03.2021 10:00 3,6 C 10,8 C 4,2 C 76 % 1028,7 hPa 0,0 l/m 0,93 h 0,00 h 365 W/m 16,0 km/h (3 Bft) 97,51 %
05.03.2021 11:00 5,5 C 15,8 C 10,4 C 68 % 1029,0 hPa 0,0 l/m 1,00 h 0,00 h 560 W/m 14,1 km/h (3 Bft) 96,02 %
05.03.2021 12:00 6,0 C 13,3 C 5,3 C 63 % 1029,4 hPa 0,0 l/m 1,00 h 0,00 h 607 W/m 15,9 km/h (3 Bft) 97,31 %
05.03.2021 13:00 7,3 C 18,7 C 4,0 C 57 % 1029,5 hPa 0,0 l/m 1,00 h 0,00 h 594 W/m 15,0 km/h (3 Bft) 96,95 %
05.03.2021 14:00 7,6 C 17,9 C 4,0 C 51 % 1029,7 hPa 0,0 l/m 1,00 h 0,00 h 533 W/m 17,3 km/h (3 Bft) 97,88 %
05.03.2021 15:00 7,4 C 13,6 C 4,0 C 50 % 1029,9 hPa 0,0 l/m 0,97 h 0,00 h 396 W/m 15,7 km/h (3 Bft) 99,22 %
05.03.2021 16:00 6,5 C 8,7 C 2,5 C 51 % 1030,0 hPa 0,0 l/m 0,87 h 0,00 h 243 W/m 11,4 km/h (2 Bft) 96,16 %
05.03.2021 17:00 5,2 C 4,6 C 1,6 C 52 % 1030,4 hPa 0,0 l/m 0,00 h 0,00 h 27 W/m 9,3 km/h (2 Bft) 99,22 %
05.03.2021 18:00 4,2 C 2,6 C -0,0 C 56 % 1031,1 hPa 0,0 l/m 0,00 h 0,00 h 9 W/m 1,5 km/h (1 Bft) 95,08 %
05.03.2021 19:00 2,8 C 0,7 C -1,8 C 64 % 1031,9 hPa 0,0 l/m 0,00 h 0,00 h 0 W/m 0,0 km/h (0 Bft) 93,90 %
05.03.2021 20:00 1,2 C -0,3 C -2,9 C 68 % 1032,4 hPa 0,0 l/m 0,00 h 0,00 h 0 W/m 0,0 km/h (0 Bft) 98,01 %
05.03.2021 21:00 -0,1 C -1,3 C -3,7 C 73 % 1033,0 hPa 0,0 l/m 0,00 h 0,00 h 0 W/m 0,0 km/h (0 Bft) 97,91 %
05.03.2021 22:00 -1,3 C -2,0 C -4,3 C 78 % 1033,4 hPa 0,0 l/m 0,00 h 0,00 h 0 W/m 0,0 km/h (0 Bft) 97,16 %
05.03.2021 23:00 -2,0 C -2,8 C -4,8 C 82 % 1033,7 hPa 0,0 l/m 0,00 h 0,00 h 0 W/m 0,0 km/h (0 Bft) 98,72 %
06.03.2021 00:00 -2,5 C -3,0 C -5,0 C 85 % 1033,9 hPa 0,0 l/m 0,00 h 0,00 h 0 W/m 0,0 km/h (0 Bft) 97,68 %
06.03.2021 01:00 -2,9 C -3,4 C -5,4 C 88 % 1034,1 hPa 0,0 l/m 0,00 h 0,00 h 0 W/m 0,0 km/h (0 Bft) 94,99 %
06.03.2021 02:00 -3,2 C -3,9 C -5,5 C 89 % 1034,1 hPa 0,0 l/m 0,00 h 0,00 h 0 W/m 0,0 km/h (0 Bft) 99,15 %
06.03.2021 03:00 -3,5 C -4,0 C -5,7 C 91 % 1033,9 hPa 0,0 l/m 0,00 h 0,00 h 0 W/m 0,0 km/h (0 Bft) 95,90 %
06.03.2021 04:00 -4,0 C -4,4 C -6,1 C 91 % 1033,9 hPa 0,0 l/m 0,00 h 0,00 h 0 W/m 0,0 km/h (0 Bft) 98,09 %
06.03.2021 05:00 -4,3 C -4,6 C -6,4 C 92 % 1034,1 hPa 0,0 l/m 0,00 h 0,00 h 0 W/m 0,0 km/h (0 Bft) 95,53 %
06.03.2021 06:00 -4,6 C -5,0 C -6,6 C 92 % 1034,2 hPa 0,0 l/m 0,00 h 0,00 h 0 W/m 0,0 km/h (0 Bft) 93,59 %
06.03.2021 07:00 -4,6 C -4,7 C -6,2 C 93 % 1034,4 hPa 0,0 l/m 0,00 h 0,00 h 15 W/m 0,0 km/h (0 Bft) 98,15 %
06.03.2021 08:00 -3,8 C -2,5 C -4,7 C 94 % 1034,9 hPa 0,0 l/m 0,20 h 0,00 h 66 W/m 0,0 km/h (0 Bft) 98,79 %
06.03.2021 09:00 -0,4 C 6,1 C -1,5 C 95 % 1035,2 hPa 0,0 l/m 0,83 h 0,00 h 252 W/m 1,1 km/h (0 Bft) 96,23 %
06.03.2021 10:00 4,3 C 11,9 C 5,1 C 75 % 1035,2 hPa 0,0 l/m 0,90 h 0,00 h 337 W/m 4,5 km/h (1 Bft) 97,24 %
06.03.2021 11:00 6,5 C 16,4 C 10,6 C 61 % 1034,9 hPa 0,0 l/m 1,00 h 0,00 h 507 W/m 7,7 km/h (2 Bft) 99,79 %
06.03.2021 12:00 6,9 C 14,8 C 6,5 C 59 % 1034,4 hPa 0,0 l/m 1,00 h 0,00 h 609 W/m 10,6 km/h (2 Bft) 98,89 %
06.03.2021 13:00 8,0 C 21,0 C 4,7 C 59 % 1033,7 hPa 0,0 l/m 1,00 h 0,00 h 594 W/m 9,9 km/h (2 Bft) 95,23 %
06.03.2021 14:00 8,6 C 20,1 C 4,8 C 57 % 1033,0 hPa 0,0 l/m 1,00 h 0,00 h 527 W/m 8,1 km/h (2 Bft) 97,86 %
06.03.2021 15:00 8,3 C 15,8 C 4,7 C 57 % 1032,2 hPa 0,0 l/m 1,00 h 0,00 h 416 W/m 7,7 km/h (2 Bft) 95,73 %
06.03.2021 16:00 7,6 C 10,4 C 3,4 C 57 % 1031,8 hPa 0,0 l/m 1,00 h 0,00 h 268 W/m 7,5 km/h (2 Bft) 98,15 %
06.03.2021 17:00 6,2 C 6,0 C 2,6 C 61 % 1031,5 hPa 0,0 l/m 0,13 h 0,00 h 53 W/m 4,7 km/h (1 Bft) 96,16 %
06.03.2021 18:00 5,1 C 3,6 C 0,8 C 63 % 1031,4 hPa 0,0 l/m 0,00 h 0,00 h 10 W/m 3,0 km/h (1 Bft) 98,99 %
06.03.2021 19:00 3,8 C 1,8 C -1,0 C 67 % 1031,4 hPa 0,0 l/m 0,00 h 0,00 h 0 W/m 0,0 km/h (0 Bft) 97,37 %
06.03.2021 20:00 2,3 C 0,5 C -2,4 C 72 % 1030,9 hPa 0,0 l/m 0,00 h 0,00 h 0 W/m 0,0 km/h (0 Bft) 95,94 %
06.03.2021 21:00 1,1 C -0,1 C -2,7 C 78 % 1030,4 hPa 0,0 l/m 0,00 h 0,00 h 0 W/m 0,1 km/h (0 Bft) 98,79 %
06.03.2021 22:00 0,3 C -1,4 C -3,7 C 80 % 1030,0 hPa 0,0 l/m 0,00 h 0,00 h 0 W/m 0,0 km/h (0 Bft) 97,84 %
06.03.2021 23:00 -0,9 C -2,0 C -4,4 C 83 % 1029,7 hPa 0,0 l/m 0,00 h 0,00 h 0 W/m 0,0 km/h (0 Bft) 98,79 %
07.03.2021 00:00 -1,7 C -2,3 C -4,5 C 86 % 1029,3 hPa 0,0 l/m 0,00 h 0,00 h 0 W/m 0,0 km/h (0 Bft) 97,36 %
07.03.2021 01:00 -2,0 C -2,8 C -4,9 C 89 % 1029,1 hPa 0,0 l/m 0,00 h 0,00 h 0 W/m 0,0 km/h (0 Bft) 95,09 %
07.03.2021 02:00 -2,5 C -3,3 C -5,2 C 89 % 1028,8 hPa 0,0 l/m 0,00 h 0,00 h 0 W/m 0,0 km/h (0 Bft) 96,86 %
07.03.2021 03:00 -3,0 C -3,6 C -5,5 C 91 % 1028,2 hPa 0,0 l/m 0,00 h 0,00 h 0 W/m 0,0 km/h (0 Bft) 96,28 %
07.03.2021 04:00 -3,3 C -3,8 C -5,6 C 92 % 1027,7 hPa 0,0 l/m 0,00 h 0,00 h 0 W/m 0,0 km/h (0 Bft) 96,83 %
07.03.2021 05:00 -3,5 C -4,1 C -5,8 C 92 % 1027,5 hPa 0,0 l/m 0,00 h 0,00 h 0 W/m 0,0 km/h (0 Bft) 95,09 %
07.03.2021 06:00 -4,0 C -4,5 C -6,2 C 92 % 1027,1 hPa 0,0 l/m 0,00 h 0,00 h 0 W/m 0,0 km/h (0 Bft) 97,07 %
07.03.2021 07:00 -4,4 C -4,5 C -6,0 C 93 % 1027,0 hPa 0,0 l/m 0,00 h 0,00 h 15 W/m 0,0 km/h (0 Bft) 97,09 %
07.03.2021 08:00 -3,6 C -2,3 C -4,6 C 94 % 1027,0 hPa 0,0 l/m 0,23 h 0,00 h 72 W/m 0,0 km/h (0 Bft) 99,36 %
07.03.2021 09:00 0,3 C 5,8 C -1,3 C 96 % 1026,8 hPa 0,0 l/m 0,80 h 0,00 h 238 W/m 1,7 km/h (1 Bft) 95,82 %
07.03.2021 10:00 3,8 C 11,4 C 6,1 C 85 % 1026,5 hPa 0,0 l/m 0,93 h 0,00 h 355 W/m 4,3 km/h (1 Bft) 97,30 %
07.03.2021 11:00 6,4 C 13,4 C 8,1 C 73 % 1026,2 hPa 0,0 l/m 0,67 h 0,00 h 415 W/m 7,7 km/h (2 Bft) 99,57 %
07.03.2021 12:00 6,3 C 11,4 C 5,0 C 67 % 1025,9 hPa 0,0 l/m 0,93 h 0,00 h 531 W/m 16,5 km/h (3 Bft) 97,86 %
07.03.2021 13:00 7,8 C 17,3 C 4,3 C 60 % 1025,2 hPa 0,0 l/m 1,00 h 0,00 h 573 W/m 15,0 km/h (3 Bft) 99,08 %
07.03.2021 14:00 8,0 C 17,2 C 4,1 C 58 % 1024,5 hPa 0,0 l/m 0,97 h 0,00 h 523 W/m 15,5 km/h (3 Bft) 96,64 %
07.03.2021 15:00 7,9 C 14,2 C 4,1 C 57 % 1024,0 hPa 0,0 l/m 1,00 h 0,00 h 444 W/m 14,1 km/h (3 Bft) 97,00 %
07.03.2021 16:00 6,9 C 8,8 C 2,8 C 59 % 1023,6 hPa 0,0 l/m 0,53 h 0,00 h 215 W/m 14,0 km/h (3 Bft) 96,44 %
07.03.2021 17:00 5,5 C 5,4 C 2,4 C 63 % 1023,3 hPa 0,0 l/m 0,37 h 0,00 h 71 W/m 9,3 km/h (2 Bft) 98,58 %
07.03.2021 18:00 4,7 C 3,4 C 0,8 C 66 % 1023,4 hPa 0,0 l/m 0,00 h 0,00 h 7 W/m 3,9 km/h (1 Bft) 96,83 %
07.03.2021 19:00 3,3 C 1,6 C -0,8 C 71 % 1023,7 hPa 0,0 l/m 0,00 h 0,00 h 0 W/m 2,6 km/h (1 Bft) 93,78 %
07.03.2021 20:00 2,1 C 0,4 C -2,0 C 75 % 1023,7 hPa 0,0 l/m 0,00 h 0,00 h 0 W/m 0,2 km/h (0 Bft) 99,45 %
07.03.2021 21:00 1,6 C 1,0 C -1,4 C 80 % 1023,9 hPa 0,0 l/m 0,00 h 0,00 h 0 W/m 0,1 km/h (0 Bft) 98,80 %
07.03.2021 22:00 1,9 C 1,6 C -1,1 C 83 % 1024,2 hPa 0,0 l/m 0,00 h 0,00 h 0 W/m 0,4 km/h (0 Bft) 97,51 %
07.03.2021 23:00 2,0 C 1,7 C -1,0 C 83 % 1024,1 hPa 0,0 l/m 0,00 h 0,00 h 0 W/m 0,0 km/h (0 Bft) 96,53 %
Min-Datum _ 06.03.21 06.03.21 06.03.21 02.03.21 04.03.21 - - - - 01.03.21 01.03.21
_ Min-Zeit 06:34 05:36 05:30 16:18 15:48 - - - - 00:00 00:02
Minimum _ -4,7 C -5,0 C -6,6 C 47 % 1019,9 hPa - - - - 0,0 km/h (0 Bft) 5,26 %
Max-Datum _ 02.03.21 03.03.21 02.03.21 04.03.21 06.03.21 04.03.21 01.03.21 04.03.21 07.03.21 05.03.21 01.03.21
_ Max-Zeit 16:15 13:02 14:36 12:10 10:30 08:12 12:08 12:08 11:30 10:44 02:46
Maximum _ 19,2 C 23,9 C 25,0 C 99 % 1035,3 hPa 6,6 l/m 0,07 h 0,07 h 670 W/m 35,4 km/h
NO (5 Bft)
100,00 %
Durchschnitt _ 5,2 C 6,1 C 3,5 C 81 % 1028,6 hPa #17,4 l/m #40:32 h #8:54 h 235 W/m 3,5 km/h (1 Bft) 97,07 %
© 2021 W. Hausmann